Terminal Aerodrome Forecast
Issued by NWS

Home | Current Version | Previous Version | Text Only | Print | Product List | Glossary On
Versions: 1 2 3 4 5 6 7 8 9 10 11 12 13
000
FTUS45 KRIW 050529
TAFJAC
TAF
KJAC 050529Z 0506/0606 VRB05KT P6SM VCSH BKN100
     FM051300 VRB04KT P6SM SCT100
     FM051700 19010KT P6SM VCSH SCT060 BKN100
     FM052200 21014KT P6SM -SHRA VCTS OVC050CB
     FM060200 20007KT P6SM -SHRA OVC040
      AMD LTD TO CLD VIS AND WIND=

USA.gov is the U.S. government's official web portal to all federal, state and local government web resources and services.